< < Back
Terminal Aerodrome Forecast


Current Version              Previous Versions:   1  2  3  4  5  6  7  8  9  

Terminal Aerodrome Forecast

311
FTAK31 PAJN 251346 AAB
TAFAGS
TAF AMD
PAGS 251346Z 2514/2612 14003KT P6SM -RA FEW003 BKN020 OVC100
      TEMPO 2514/2517 2SM BR BKN003 OVC006
     FM252000 14010KT P6SM -RA OVC010
      AMD LTD TO CLD VIS AND WIND=

Latest METAR

936
SAUS70 KWBC 251800
MTRAGS
METAR KAGS 251753Z 36006KT 10SM CLR 33/19 A3013 RMK AO2 SLP202 T03280194
10328 20222 58018


USA.gov is the U.S. government's official web portal to all federal, state and local government web resources and services.